Time;durP1;ratioP1;P1;durP2;ratioP2;P2;SDS_P1;SDS_P2;PMS_P1;PMS_P2;Temp;Humidity;BMP_temperature;BMP_pressure;BME280_temperature;BME280_humidity;BME280_pressure;Samples;Min_cycle;Max_cycle;Signal;HPM_P1;HPM_P2
2022/05/08 00:00:06;;;;;;;9.10;3.17;;;8.60;99.90;;;;;;5128182;27;20569;-64
2022/05/08 00:02:42;;;;;;;12.03;3.37;;;8.60;99.90;;;;;;5127387;27;20917;-64
2022/05/08 00:05:12;;;;;;;13.53;4.00;;;8.50;99.90;;;;;;5128515;27;20776;-64
2022/05/08 00:07:40;;;;;;;13.07;3.70;;;8.60;99.90;;;;;;5128448;27;20236;-64
2022/05/08 00:10:09;;;;;;;15.57;4.00;;;8.60;99.90;;;;;;5128153;27;20236;-63
2022/05/08 00:12:37;;;;;;;14.20;3.70;;;8.60;99.90;;;;;;5126628;27;20235;-63
2022/05/08 00:15:07;;;;;;;10.93;3.40;;;8.50;99.90;;;;;;5127979;27;20247;-63
2022/05/08 00:17:35;;;;;;;15.27;4.00;;;8.50;99.90;;;;;;5127859;27;20323;-64
2022/05/08 00:20:09;;;;;;;12.00;3.37;;;8.40;99.90;;;;;;5127432;27;20236;-64
2022/05/08 00:22:44;;;;;;;15.43;3.70;;;8.40;99.90;;;;;;5126795;27;20625;-63
2022/05/08 00:25:12;;;;;;;9.23;3.27;;;8.40;99.90;;;;;;5128574;27;20241;-65
2022/05/08 00:27:40;;;;;;;12.27;3.30;;;8.40;99.90;;;;;;5128322;27;20719;-64
2022/05/08 00:30:10;;;;;;;13.37;3.80;;;8.40;99.90;;;;;;5128204;27;20677;-63
2022/05/08 00:32:39;;;;;;;9.13;3.60;;;8.40;99.90;;;;;;5126383;27;20228;-63
2022/05/08 00:35:10;;;;;;;9.10;3.20;;;8.40;99.90;;;;;;5125138;27;20711;-63
2022/05/08 00:37:39;;;;;;;10.57;3.20;;;8.30;99.90;;;;;;5124540;27;20236;-63
2022/05/08 00:40:08;;;;;;;12.63;3.73;;;8.30;99.90;;;;;;5124577;27;20247;-64
2022/05/08 00:42:36;;;;;;;9.43;3.30;;;8.40;99.90;;;;;;5123294;27;20234;-63
2022/05/08 00:45:05;;;;;;;12.73;3.80;;;8.40;99.90;;;;;;5124587;27;20249;-64
2022/05/08 00:47:33;;;;;;;14.73;3.90;;;8.30;99.90;;;;;;5124540;27;20299;-64
2022/05/08 00:50:02;;;;;;;10.07;3.27;;;8.20;99.90;;;;;;5124438;27;20248;-64
2022/05/08 00:52:34;;;;;;;10.70;3.23;;;8.20;99.90;;;;;;5123184;27;20820;-63
2022/05/08 00:55:03;;;;;;;9.63;3.13;;;8.20;99.90;;;;;;5123775;27;20283;-64
2022/05/08 00:57:31;;;;;;;12.17;3.27;;;8.20;99.90;;;;;;5123890;27;20712;-63
2022/05/08 01:00:04;;;;;;;8.00;3.23;;;8.10;99.90;;;;;;5124372;27;20240;-63
2022/05/08 01:02:36;;;;;;;11.27;3.23;;;8.10;99.90;;;;;;5124137;27;20237;-63
2022/05/08 01:05:06;;;;;;;11.17;3.00;;;8.10;99.90;;;;;;5123711;27;20245;-63
2022/05/08 01:07:35;;;;;;;12.30;3.53;;;8.20;99.90;;;;;;5123800;27;20233;-64
2022/05/08 01:10:03;;;;;;;8.50;3.00;;;8.10;99.90;;;;;;5123300;27;20245;-63
2022/05/08 01:12:34;;;;;;;10.13;3.33;;;8.10;99.90;;;;;;5121972;27;20230;-63
2022/05/08 01:15:16;;;;;;;10.87;2.90;;;8.00;99.90;;;;;;5123039;27;20253;-63
2022/05/08 01:17:44;;;;;;;10.27;3.00;;;8.00;99.90;;;;;;5123882;27;20310;-63
2022/05/08 01:20:13;;;;;;;12.17;3.47;;;8.00;99.90;;;;;;5123574;27;20245;-63
2022/05/08 01:22:42;;;;;;;7.43;3.30;;;8.00;99.90;;;;;;5122553;27;20233;-63
2022/05/08 01:25:13;;;;;;;12.27;3.27;;;8.00;99.90;;;;;;5123194;27;20643;-63
2022/05/08 01:27:42;;;;;;;12.37;3.50;;;8.00;99.90;;;;;;5123741;27;20225;-63
2022/05/08 01:30:10;;;;;;;11.37;3.87;;;8.00;99.90;;;;;;5124032;27;20248;-63
2022/05/08 01:32:39;;;;;;;7.43;3.50;;;7.90;99.90;;;;;;5122647;27;20231;-64
2022/05/08 01:35:08;;;;;;;9.90;3.30;;;8.00;99.90;;;;;;5123455;27;20241;-64
2022/05/08 01:37:36;;;;;;;10.60;3.67;;;8.00;99.90;;;;;;5123019;27;20244;-64
2022/05/08 01:40:07;;;;;;;10.27;3.20;;;7.90;99.90;;;;;;5123674;27;20328;-63
2022/05/08 01:42:35;;;;;;;9.20;3.10;;;7.90;99.90;;;;;;5123236;27;20769;-63
2022/05/08 01:45:03;;;;;;;10.00;3.37;;;7.80;99.90;;;;;;5123424;27;20236;-63
2022/05/08 01:50:17;;;;;;;12.17;3.60;;;7.80;99.90;;;;;;5123045;27;20717;-63
2022/05/08 01:52:45;;;;;;;11.37;3.40;;;7.80;99.90;;;;;;5121907;27;20237;-64
2022/05/08 01:55:14;;;;;;;7.67;3.03;;;7.70;99.90;;;;;;5123389;27;20336;-63
2022/05/08 01:57:42;;;;;;;8.27;3.00;;;7.70;99.90;;;;;;5122880;27;20236;-63
2022/05/08 02:00:11;;;;;;;9.20;3.23;;;7.80;99.90;;;;;;5122945;27;20241;-63
2022/05/08 02:02:43;;;;;;;7.17;3.43;;;7.70;99.90;;;;;;5121786;27;20239;-63
2022/05/08 02:05:11;;;;;;;12.30;3.50;;;7.60;99.90;;;;;;5123078;27;20255;-63
2022/05/08 02:07:39;;;;;;;8.30;3.00;;;7.60;99.90;;;;;;5122266;27;20233;-63
2022/05/08 02:10:08;;;;;;;6.50;2.47;;;7.60;99.90;;;;;;5122618;27;21118;-63
2022/05/08 02:12:41;;;;;;;9.83;3.73;;;7.70;99.90;;;;;;5121895;27;20724;-64
2022/05/08 02:15:11;;;;;;;5.50;2.60;;;7.70;99.90;;;;;;5122387;27;20677;-63
2022/05/08 02:17:40;;;;;;;7.97;2.97;;;7.70;99.90;;;;;;5122321;27;20253;-63
2022/05/08 02:20:11;;;;;;;6.97;3.07;;;7.60;99.90;;;;;;5122699;27;20270;-64
2022/05/08 02:22:39;;;;;;;6.97;2.50;;;7.60;99.90;;;;;;5121859;27;20237;-63
2022/05/08 02:25:08;;;;;;;10.30;2.97;;;7.70;99.90;;;;;;5108491;27;20241;-63
2022/05/08 02:27:40;;;;;;;14.57;3.37;;;7.60;99.90;;;;;;5123071;27;20638;-63
2022/05/08 02:30:10;;;;;;;6.80;2.90;;;7.60;99.90;;;;;;5124366;27;20236;-64
2022/05/08 02:32:40;;;;;;;7.10;2.87;;;7.50;99.90;;;;;;5121666;27;20232;-63
2022/05/08 02:35:10;;;;;;;7.10;2.90;;;7.50;99.90;;;;;;5122737;27;20241;-63
2022/05/08 02:37:39;;;;;;;5.53;2.50;;;7.50;99.90;;;;;;5122665;27;20228;-64
2022/05/08 02:40:09;;;;;;;8.13;2.70;;;7.60;99.90;;;;;;5122157;27;20735;-63
2022/05/08 02:42:40;;;;;;;7.80;3.03;;;7.50;99.90;;;;;;5120741;27;20232;-63
2022/05/08 02:45:09;;;;;;;10.40;3.00;;;7.50;99.90;;;;;;5121936;27;20239;-63
2022/05/08 02:47:42;;;;;;;6.60;2.57;;;7.30;99.90;;;;;;5121781;27;20359;-64
2022/05/08 02:50:11;;;;;;;6.80;2.57;;;7.40;99.90;;;;;;5121801;27;20252;-63
2022/05/08 02:52:40;;;;;;;9.03;2.40;;;7.30;99.90;;;;;;5120689;27;20236;-63
2022/05/08 03:00:46;;;;;;;8.97;2.83;;;7.20;99.90;;;;;;5121563;27;20264;-64
2022/05/08 03:03:16;;;;;;;5.97;2.97;;;7.20;99.90;;;;;;5120703;27;21368;-63
2022/05/08 03:05:46;;;;;;;10.60;2.57;;;7.40;99.90;;;;;;5122126;27;20244;-63
2022/05/08 03:08:17;;;;;;;8.60;2.73;;;7.40;99.90;;;;;;5121822;27;20649;-63
2022/05/08 03:13:36;;;;;;;7.53;2.57;;;7.20;99.90;;;;;;5120706;27;20233;-63
2022/05/08 03:16:04;;;;;;;11.20;2.73;;;7.20;99.90;;;;;;5121927;27;20228;-63
2022/05/08 03:18:32;;;;;;;6.23;2.90;;;7.10;99.90;;;;;;5121373;27;20278;-63
2022/05/08 03:21:00;;;;;;;6.83;3.20;;;7.00;99.90;;;;;;5121991;27;20776;-63
2022/05/08 03:23:31;;;;;;;9.43;2.70;;;7.10;99.90;;;;;;5120789;27;20268;-63
2022/05/08 03:25:59;;;;;;;7.00;2.67;;;7.00;99.90;;;;;;5121950;27;20249;-64
2022/05/08 03:28:28;;;;;;;7.70;3.50;;;7.00;99.90;;;;;;5121919;27;20233;-63
2022/05/08 03:30:58;;;;;;;8.57;2.70;;;7.00;99.90;;;;;;5121443;27;20233;-63
2022/05/08 03:33:27;;;;;;;8.57;2.80;;;7.00;99.90;;;;;;5120581;27;20624;-63
2022/05/08 03:35:55;;;;;;;9.13;3.17;;;6.90;99.90;;;;;;5122290;27;20232;-63
2022/05/08 03:38:23;;;;;;;8.40;3.00;;;6.90;99.90;;;;;;5121109;28;20719;-63
2022/05/08 03:40:51;;;;;;;9.20;3.00;;;6.90;99.90;;;;;;5121514;27;20241;-64
2022/05/08 03:43:20;;;;;;;7.37;2.73;;;6.90;99.90;;;;;;5121112;27;20626;-63
2022/05/08 03:45:48;;;;;;;5.50;2.93;;;6.90;99.90;;;;;;5121071;27;20584;-63
2022/05/08 03:48:19;;;;;;;9.40;2.97;;;6.90;99.90;;;;;;5122083;27;20315;-63
2022/05/08 03:50:47;;;;;;;9.13;3.10;;;6.90;99.90;;;;;;5121680;27;20240;-63
2022/05/08 03:53:15;;;;;;;5.87;2.67;;;6.80;99.90;;;;;;5122043;27;20226;-64
2022/05/08 03:55:43;;;;;;;5.80;2.53;;;6.80;99.90;;;;;;5122660;27;20232;-63
2022/05/08 03:58:11;;;;;;;9.10;3.20;;;6.80;99.90;;;;;;5122574;27;20687;-63
2022/05/08 04:00:40;;;;;;;9.57;3.20;;;6.80;99.90;;;;;;5122229;27;20320;-63
2022/05/08 04:03:08;;;;;;;7.60;2.87;;;6.90;99.90;;;;;;5121364;27;20684;-64
2022/05/08 04:05:38;;;;;;;9.07;2.83;;;6.80;99.90;;;;;;5122362;27;20237;-63
2022/05/08 04:08:07;;;;;;;7.27;2.93;;;6.80;99.90;;;;;;5122385;28;20251;-63
2022/05/08 04:10:38;;;;;;;5.70;2.90;;;6.70;99.90;;;;;;5124123;27;20236;-63
2022/05/08 04:13:06;;;;;;;6.53;2.50;;;6.80;99.90;;;;;;5125100;27;20608;-63
2022/05/08 04:18:20;;;;;;;10.57;3.00;;;6.80;99.90;;;;;;5126049;27;20241;-63
2022/05/08 04:20:50;;;;;;;6.13;2.77;;;6.90;99.90;;;;;;5126136;27;20328;-63
2022/05/08 04:26:03;;;;;;;8.03;2.63;;;7.10;99.90;;;;;;5124756;27;20237;-63
2022/05/08 04:28:31;;;;;;;8.60;3.03;;;7.10;99.90;;;;;;5124895;27;20711;-63
2022/05/08 04:30:59;;;;;;;4.27;2.50;;;7.20;99.90;;;;;;5123808;27;20249;-63
2022/05/08 04:33:28;;;;;;;7.07;2.57;;;7.20;99.90;;;;;;5124200;27;20244;-63
2022/05/08 04:35:57;;;;;;;9.40;3.07;;;7.30;99.90;;;;;;5126177;27;20233;-63
2022/05/08 04:38:25;;;;;;;7.73;3.20;;;7.40;99.90;;;;;;5126310;27;20333;-63
2022/05/08 04:40:53;;;;;;;7.37;3.03;;;7.50;99.90;;;;;;5125687;27;20237;-63
2022/05/08 04:43:21;;;;;;;7.07;2.57;;;7.50;99.90;;;;;;5123685;27;20285;-63
2022/05/08 04:45:49;;;;;;;8.97;2.77;;;7.50;99.90;;;;;;5124028;27;20240;-63
2022/05/08 04:48:17;;;;;;;5.47;2.93;;;7.60;99.90;;;;;;5123750;27;20726;-63
2022/05/08 04:50:46;;;;;;;11.43;3.20;;;7.70;99.90;;;;;;5124440;27;20286;-63
2022/05/08 04:53:15;;;;;;;8.07;3.17;;;7.80;99.90;;;;;;5123637;27;20240;-63
2022/05/08 04:55:43;;;;;;;8.20;2.30;;;8.00;99.90;;;;;;5124306;27;20237;-63
2022/05/08 04:58:11;;;;;;;7.47;2.57;;;8.00;99.90;;;;;;5124323;27;20248;-63
2022/05/08 05:00:39;;;;;;;8.87;2.73;;;8.20;99.90;;;;;;5123392;27;20239;-63
2022/05/08 05:03:07;;;;;;;6.83;3.03;;;8.30;99.90;;;;;;5123296;27;20283;-63
2022/05/08 05:05:36;;;;;;;7.33;2.93;;;8.30;99.90;;;;;;5124476;27;20324;-63
2022/05/08 05:08:07;;;;;;;9.07;3.10;;;8.40;99.90;;;;;;5125278;27;20241;-63
2022/05/08 05:10:36;;;;;;;5.00;2.67;;;8.50;99.90;;;;;;5124799;27;20233;-63
2022/05/08 05:13:04;;;;;;;6.80;3.00;;;8.60;99.90;;;;;;5123911;27;20320;-63
2022/05/08 05:15:32;;;;;;;7.53;3.27;;;8.60;99.90;;;;;;5123347;27;20234;-64
2022/05/08 05:18:02;;;;;;;10.30;3.03;;;8.70;99.90;;;;;;5123667;27;20246;-64
2022/05/08 05:20:30;;;;;;;11.60;3.43;;;8.80;99.90;;;;;;5123009;27;20646;-64
2022/05/08 05:23:04;;;;;;;9.80;2.93;;;8.90;99.90;;;;;;5122777;27;20736;-63
2022/05/08 05:25:32;;;;;;;12.30;3.93;;;9.00;99.90;;;;;;5123196;27;20231;-64
2022/05/08 05:28:02;;;;;;;5.50;2.73;;;9.00;99.90;;;;;;5124367;27;20245;-64
2022/05/08 05:30:35;;;;;;;7.57;2.83;;;9.00;99.90;;;;;;5122737;27;20290;-64
2022/05/08 05:33:04;;;;;;;9.47;2.83;;;9.10;99.90;;;;;;5122611;27;20831;-64
2022/05/08 05:35:32;;;;;;;6.17;2.27;;;9.20;99.90;;;;;;5122688;27;20317;-64
2022/05/08 05:38:02;;;;;;;8.67;2.70;;;9.30;99.90;;;;;;5122900;27;20229;-64
2022/05/08 05:40:30;;;;;;;7.80;2.87;;;9.40;99.90;;;;;;5124320;27;20242;-64
2022/05/08 05:42:59;;;;;;;7.77;3.10;;;9.60;99.90;;;;;;5122983;27;20248;-64
2022/05/08 05:45:28;;;;;;;9.07;2.90;;;9.70;99.90;;;;;;5124216;27;20241;-64
2022/05/08 05:47:59;;;;;;;11.40;3.43;;;9.90;99.90;;;;;;5123672;27;20242;-64
2022/05/08 05:50:28;;;;;;;10.50;3.00;;;10.00;99.90;;;;;;5123274;27;20248;-64
2022/05/08 05:52:56;;;;;;;6.40;2.63;;;10.20;99.90;;;;;;5122705;27;20604;-64
2022/05/08 05:55:24;;;;;;;12.90;3.10;;;10.40;99.90;;;;;;5123325;27;20904;-64
2022/05/08 05:57:52;;;;;;;11.37;3.30;;;10.60;99.90;;;;;;5122919;27;20238;-64
2022/05/08 06:00:21;;;;;;;6.77;2.37;;;10.80;99.90;;;;;;5122840;27;20917;-64
2022/05/08 06:02:51;;;;;;;7.57;2.70;;;10.90;99.90;;;;;;5123255;27;20736;-64
2022/05/08 06:05:19;;;;;;;7.60;2.67;;;10.90;99.90;;;;;;5123945;27;20253;-64
2022/05/08 06:07:47;;;;;;;7.93;2.23;;;11.20;99.90;;;;;;5123276;27;20272;-64
2022/05/08 06:10:16;;;;;;;13.20;4.27;;;11.40;99.90;;;;;;5124366;27;20254;-64
2022/05/08 06:12:45;;;;;;;10.43;2.70;;;11.60;99.90;;;;;;5123016;27;20321;-63
2022/05/08 06:15:13;;;;;;;10.00;2.80;;;11.70;99.90;;;;;;5116554;27;20720;-64
2022/05/08 06:17:41;;;;;;;7.70;2.30;;;11.80;99.90;;;;;;5091935;28;20295;-64
2022/05/08 06:20:11;;;;;;;10.23;2.63;;;11.80;99.90;;;;;;5093699;28;20260;-64
2022/05/08 06:22:40;;;;;;;8.60;2.93;;;11.70;99.90;;;;;;5089435;28;20237;-64
2022/05/08 06:25:09;;;;;;;11.63;2.70;;;11.60;99.90;;;;;;5091364;28;20251;-64
2022/05/08 06:27:37;;;;;;;11.13;3.17;;;11.70;99.90;;;;;;5092937;28;20319;-64
2022/05/08 06:30:07;;;;;;;11.77;3.10;;;11.70;99.90;;;;;;5092865;27;20237;-63
2022/05/08 06:32:36;;;;;;;16.00;2.80;;;11.70;99.90;;;;;;5087486;28;20243;-64
2022/05/08 06:35:25;;;;;;;11.83;2.57;;;11.70;99.90;;;;;;5089752;28;20237;-63
2022/05/08 06:37:54;;;;;;;13.40;2.77;;;11.70;99.90;;;;;;5075323;28;20240;-64
2022/05/08 06:40:23;;;;;;;12.57;2.77;;;11.60;99.90;;;;;;5086464;27;20232;-64
2022/05/08 06:42:51;;;;;;;13.03;2.70;;;11.60;99.90;;;;;;5087391;28;20251;-64
2022/05/08 06:45:24;;;;;;;12.73;2.50;;;11.80;99.90;;;;;;5091354;28;20241;-64
2022/05/08 06:47:53;;;;;;;12.60;2.90;;;11.90;99.90;;;;;;5088409;28;20665;-64
2022/05/08 06:50:22;;;;;;;11.57;2.37;;;12.20;99.90;;;;;;5090204;27;20263;-64
2022/05/08 06:52:51;;;;;;;10.13;2.60;;;12.20;99.90;;;;;;5084500;28;20253;-64
2022/05/08 06:55:20;;;;;;;10.20;2.20;;;12.40;99.90;;;;;;5086535;28;20245;-64
2022/05/08 06:57:48;;;;;;;12.40;2.83;;;12.50;99.90;;;;;;5088660;28;20298;-64
2022/05/08 07:03:04;;;;;;;10.60;2.87;;;12.70;99.90;;;;;;5078175;28;20638;-63
2022/05/08 07:05:36;;;;;;;9.90;2.63;;;12.70;99.90;;;;;;5081551;28;20712;-63
2022/05/08 07:08:06;;;;;;;19.43;3.20;;;12.80;99.90;;;;;;5080715;28;20234;-64
2022/05/08 07:10:34;;;;;;;10.73;3.27;;;12.90;99.90;;;;;;5077460;28;20257;-64
2022/05/08 07:13:02;;;;;;;14.00;2.83;;;12.90;99.90;;;;;;5079980;28;20271;-64
2022/05/08 07:15:30;;;;;;;13.27;2.90;;;13.10;99.90;;;;;;5092199;27;20791;-64
2022/05/08 07:18:19;;;;;;;9.97;2.50;;;13.30;99.90;;;;;;5115636;27;20384;-64
2022/05/08 07:20:47;;;;;;;8.70;2.37;;;13.60;99.90;;;;;;5113156;27;20680;-64
2022/05/08 07:23:17;;;;;;;12.00;3.20;;;13.70;99.90;;;;;;5114746;27;20330;-64
2022/05/08 07:25:47;;;;;;;12.70;2.57;;;13.90;99.90;;;;;;5115031;27;20264;-64
2022/05/08 07:28:15;;;;;;;16.67;2.93;;;14.10;99.90;;;;;;5114806;28;20305;-64
2022/05/08 07:30:43;;;;;;;12.40;3.30;;;14.30;99.90;;;;;;5112947;27;20894;-64
2022/05/08 07:33:16;;;;;;;10.90;2.93;;;14.50;99.90;;;;;;5114042;27;20387;-64
2022/05/08 07:38:31;;;;;;;13.03;3.07;;;14.40;99.90;;;;;;5114673;27;20252;-64
2022/05/08 07:41:01;;;;;;;13.47;3.00;;;14.40;99.90;;;;;;5112995;27;21189;-64
2022/05/08 07:43:29;;;;;;;8.77;2.83;;;14.50;99.90;;;;;;5113002;27;20247;-64
2022/05/08 07:45:58;;;;;;;10.47;2.50;;;14.60;99.90;;;;;;5118452;27;20335;-64
2022/05/08 07:48:26;;;;;;;10.27;2.53;;;14.90;99.90;;;;;;5117865;27;20241;-64
2022/05/08 07:50:54;;;;;;;13.00;2.63;;;15.00;99.90;;;;;;5115715;27;20248;-63
2022/05/08 07:53:22;;;;;;;12.33;3.13;;;15.00;99.90;;;;;;5117290;27;20711;-64
2022/05/08 07:55:52;;;;;;;13.90;3.13;;;15.20;99.90;;;;;;5117616;27;20236;-64
2022/05/08 07:58:22;;;;;;;10.57;2.93;;;14.90;99.90;;;;;;5117260;27;20243;-64
2022/05/08 08:00:53;;;;;;;12.20;2.60;;;14.70;99.90;;;;;;5116219;27;20233;-64
2022/05/08 08:03:23;;;;;;;11.87;2.90;;;14.40;99.90;;;;;;5117421;27;20588;-64
2022/05/08 08:05:52;;;;;;;9.80;2.77;;;14.70;99.90;;;;;;5099969;27;20371;-64
2022/05/08 08:08:37;;;;;;;11.97;2.93;;;15.20;99.90;;;;;;5116878;27;20676;-64
2022/05/08 08:11:07;;;;;;;9.30;2.50;;;15.20;99.90;;;;;;5115491;27;20380;-64
2022/05/08 08:13:36;;;;;;;8.53;2.57;;;15.20;99.90;;;;;;5116521;27;20241;-65
2022/05/08 08:16:07;;;;;;;10.63;2.60;;;15.40;99.90;;;;;;5116959;27;20233;-64
2022/05/08 08:18:38;;;;;;;9.93;2.37;;;15.40;99.90;;;;;;5116478;27;20239;-64
2022/05/08 08:21:10;;;;;;;12.77;2.73;;;15.70;99.90;;;;;;5115656;27;20357;-64
2022/05/08 08:23:40;;;;;;;11.50;2.87;;;15.60;99.90;;;;;;5116469;27;20673;-64
2022/05/08 08:26:11;;;;;;;10.70;2.27;;;15.60;99.90;;;;;;5117658;27;20642;-64
2022/05/08 08:28:39;;;;;;;8.97;2.37;;;16.10;99.90;;;;;;5116628;27;20248;-64
2022/05/08 08:31:08;;;;;;;11.60;2.60;;;16.60;99.90;;;;;;5115524;27;20241;-64
2022/05/08 08:33:38;;;;;;;11.10;2.40;;;16.90;99.90;;;;;;5116290;27;20244;-64
2022/05/08 08:36:08;;;;;;;8.07;2.67;;;16.80;99.90;;;;;;5117067;27;20238;-64
2022/05/08 08:38:37;;;;;;;9.73;3.00;;;16.70;99.90;;;;;;5116932;27;20233;-64
2022/05/08 08:41:07;;;;;;;9.63;2.40;;;16.70;99.90;;;;;;5115203;27;20255;-65
2022/05/08 08:49:10;;;;;;;11.20;2.90;;;16.50;99.90;;;;;;5120084;27;20728;-64
2022/05/08 08:51:39;;;;;;;11.00;2.53;;;16.90;99.90;;;;;;5116117;27;20235;-64
2022/05/08 08:54:08;;;;;;;12.17;2.63;;;17.10;99.90;;;;;;5117601;27;20268;-64
2022/05/08 08:56:36;;;;;;;12.63;2.57;;;17.10;99.90;;;;;;5116977;27;20257;-64
2022/05/08 08:59:05;;;;;;;10.43;2.50;;;16.70;99.90;;;;;;5118383;27;20237;-64
2022/05/08 09:01:40;;;;;;;8.57;2.20;;;16.50;99.90;;;;;;5115066;27;20233;-65
2022/05/08 09:04:09;;;;;;;8.47;2.40;;;16.50;99.90;;;;;;5117292;27;20700;-64
2022/05/08 09:06:41;;;;;;;11.37;2.97;;;16.30;99.90;;;;;;5118166;27;20229;-64
2022/05/08 09:09:23;;;;;;;13.93;2.80;;;16.50;99.90;;;;;;5117896;27;20716;-64
2022/05/08 09:11:53;;;;;;;11.10;2.90;;;16.70;99.90;;;;;;5115911;27;20244;-64
2022/05/08 09:14:31;;;;;;;8.30;2.50;;;16.60;99.90;;;;;;5117380;27;20581;-65
2022/05/08 09:16:59;;;;;;;11.40;2.77;;;16.60;99.90;;;;;;5117962;27;20252;-64
2022/05/08 09:19:37;;;;;;;9.20;2.63;;;17.10;99.90;;;;;;5118175;27;20237;-64
2022/05/08 09:22:12;;;;;;;9.73;2.73;;;17.10;99.90;;;;;;5115522;27;20768;-64
2022/05/08 09:24:51;;;;;;;11.17;2.40;;;17.00;99.90;;;;;;5118306;27;20271;-64
2022/05/08 09:27:20;;;;;;;10.40;2.70;;;17.30;99.90;;;;;;5118115;27;20338;-64
2022/05/08 09:29:49;;;;;;;8.20;2.60;;;17.30;99.90;;;;;;5118016;27;20523;-64
2022/05/08 09:32:36;;;;;;;12.97;2.80;;;17.60;99.90;;;;;;5115309;27;20316;-64
2022/05/08 09:35:05;;;;;;;11.57;2.70;;;18.00;99.90;;;;;;5117723;27;20267;-64
2022/05/08 09:37:34;;;;;;;15.13;3.47;;;17.60;99.90;;;;;;5117107;27;20241;-64
2022/05/08 09:40:16;;;;;;;8.23;2.77;;;17.80;99.90;;;;;;5116826;27;20810;-64
2022/05/08 09:42:45;;;;;;;8.80;2.53;;;17.70;99.90;;;;;;5115349;27;20246;-64
2022/05/08 09:45:15;;;;;;;7.03;2.00;;;17.90;99.90;;;;;;5120520;27;20235;-64
2022/05/08 09:47:44;;;;;;;8.07;2.60;;;18.10;99.90;;;;;;5122955;27;20721;-64
2022/05/08 09:50:13;;;;;;;9.77;3.20;;;18.20;99.90;;;;;;5122549;27;20234;-64
2022/05/08 09:52:43;;;;;;;10.53;2.83;;;18.40;99.90;;;;;;5121059;27;20315;-64
2022/05/08 09:55:14;;;;;;;9.07;2.60;;;18.40;99.90;;;;;;5123716;27;20251;-64
2022/05/08 09:57:42;;;;;;;7.37;2.47;;;18.60;99.90;;;;;;5122982;27;20262;-64
2022/05/08 10:00:16;;;;;;;12.47;2.87;;;19.00;99.90;;;;;;5121713;27;20266;-64
2022/05/08 10:02:46;;;;;;;7.03;2.10;;;18.60;99.90;;;;;;5121357;27;20279;-64
2022/05/08 10:05:16;;;;;;;9.70;2.67;;;18.70;99.90;;;;;;5122635;27;20235;-64
2022/05/08 10:07:44;;;;;;;8.53;2.53;;;19.20;99.90;;;;;;5121774;27;20244;-64
2022/05/08 10:15:48;;;;;;;11.37;3.03;;;19.40;99.90;;;;;;5123771;27;20237;-64
2022/05/08 10:18:27;;;;;;;7.97;2.43;;;19.40;99.90;;;;;;5124190;27;20236;-64
2022/05/08 10:21:06;;;;;;;10.63;2.70;;;19.10;99.90;;;;;;5122683;27;20872;-64
2022/05/08 10:23:39;;;;;;;12.70;3.03;;;19.20;99.90;;;;;;5121741;27;20244;-64
2022/05/08 10:26:16;;;;;;;9.33;2.53;;;19.40;99.90;;;;;;5123313;27;20592;-64
2022/05/08 10:29:13;;;;;;;6.60;2.40;;;19.30;99.90;;;;;;5123467;27;20247;-64
2022/05/08 10:31:44;;;;;;;9.23;2.70;;;19.80;99.90;;;;;;5120946;27;20278;-64
2022/05/08 10:34:13;;;;;;;10.97;2.87;;;19.50;99.90;;;;;;5121044;27;20232;-64
2022/05/08 10:37:16;;;;;;;10.03;3.10;;;19.60;99.90;;;;;;5121848;27;20817;-64
2022/05/08 10:39:45;;;;;;;7.43;2.50;;;19.80;99.90;;;;;;5121638;27;20330;-64
2022/05/08 10:42:42;;;;;;;9.70;2.50;;;19.70;99.90;;;;;;5120037;27;20780;-64
2022/05/08 10:45:40;;;;;;;8.83;2.80;;;19.60;99.90;;;;;;5122149;27;20645;-64
2022/05/08 10:48:12;;;;;;;7.80;2.43;;;19.40;99.90;;;;;;5121956;27;20243;-64
2022/05/08 10:50:42;;;;;;;9.30;2.80;;;19.90;99.90;;;;;;5120134;27;20247;-64
2022/05/08 10:53:25;;;;;;;10.93;2.70;;;19.80;99.90;;;;;;5121574;27;20247;-64
2022/05/08 10:55:59;;;;;;;8.33;3.03;;;20.10;99.90;;;;;;5122193;27;20333;-64
2022/05/08 10:58:27;;;;;;;11.47;2.90;;;20.80;99.90;;;;;;5122146;27;20297;-64
2022/05/08 11:01:00;;;;;;;12.73;3.10;;;20.70;99.90;;;;;;5120323;27;20228;-64
2022/05/08 11:03:31;;;;;;;7.83;2.40;;;20.40;99.90;;;;;;5120636;27;20607;-64
2022/05/08 11:05:59;;;;;;;9.77;2.50;;;19.90;99.90;;;;;;5121444;27;20244;-64
2022/05/08 11:08:29;;;;;;;8.77;2.70;;;19.90;99.90;;;;;;5122335;27;20301;-64
2022/05/08 11:11:03;;;;;;;9.13;2.77;;;19.90;99.90;;;;;;5119891;27;20771;-64
2022/05/08 11:13:40;;;;;;;9.83;2.50;;;19.90;99.90;;;;;;5120231;27;20240;-64
2022/05/08 11:16:08;;;;;;;10.00;2.90;;;20.50;99.90;;;;;;5121438;27;20706;-64
2022/05/08 11:18:38;;;;;;;8.17;2.50;;;20.50;99.90;;;;;;5121495;27;20243;-64
2022/05/08 11:21:09;;;;;;;9.53;2.57;;;19.90;99.90;;;;;;5120084;27;20323;-64
2022/05/08 11:23:42;;;;;;;9.07;2.33;;;19.60;99.90;;;;;;5119115;27;20240;-64
2022/05/08 11:26:12;;;;;;;7.20;2.47;;;19.40;99.90;;;;;;5121703;27;20718;-64
2022/05/08 11:28:50;;;;;;;8.07;2.30;;;19.80;99.90;;;;;;5121572;27;20595;-64
2022/05/08 11:31:20;;;;;;;8.13;2.50;;;20.40;99.90;;;;;;5121445;27;20597;-64
2022/05/08 11:36:37;;;;;;;7.60;2.80;;;20.10;99.90;;;;;;5122776;27;20327;-64
2022/05/08 11:39:09;;;;;;;9.60;2.60;;;20.50;99.90;;;;;;5123113;27;20232;-64
2022/05/08 11:41:39;;;;;;;8.43;2.20;;;20.60;99.70;;;;;;5122047;28;20228;-64
2022/05/08 11:44:20;;;;;;;12.70;2.97;;;20.60;99.90;;;;;;5121257;28;20332;-64
2022/05/08 11:46:49;;;;;;;8.00;2.17;;;20.60;98.80;;;;;;5122954;28;20578;-64
2022/05/08 11:49:20;;;;;;;8.33;2.57;;;20.60;98.70;;;;;;5119626;27;20232;-64
2022/05/08 11:51:50;;;;;;;7.33;2.37;;;20.60;98.90;;;;;;5121627;27;20347;-64
2022/05/08 11:54:20;;;;;;;9.83;2.43;;;20.30;98.20;;;;;;5093205;28;20328;-64
2022/05/08 11:56:51;;;;;;;7.53;2.50;;;20.00;99.20;;;;;;5121530;27;20240;-64
2022/05/08 11:59:22;;;;;;;8.33;2.60;;;20.10;99.90;;;;;;5122030;27;21186;-64
2022/05/08 12:01:52;;;;;;;8.27;2.50;;;20.10;99.30;;;;;;5122653;27;20249;-64
2022/05/08 12:04:29;;;;;;;8.07;2.40;;;19.90;99.90;;;;;;5120768;27;20237;-64
2022/05/08 12:07:00;;;;;;;12.53;3.20;;;19.40;99.70;;;;;;5121489;27;21371;-64
2022/05/08 12:09:28;;;;;;;8.77;2.80;;;19.20;99.90;;;;;;5120953;27;20242;-64
2022/05/08 12:11:57;;;;;;;8.63;2.63;;;18.80;99.90;;;;;;5121492;27;20257;-64
2022/05/08 12:14:32;;;;;;;8.77;2.30;;;18.70;99.90;;;;;;5120048;27;20596;-64
2022/05/08 12:17:02;;;;;;;8.73;2.53;;;18.50;99.90;;;;;;5120789;27;20247;-64
2022/05/08 12:19:32;;;;;;;9.00;2.60;;;18.70;99.90;;;;;;5120981;28;20241;-64
2022/05/08 12:22:17;;;;;;;9.43;2.70;;;18.60;99.90;;;;;;5120905;27;20231;-64
2022/05/08 12:24:45;;;;;;;8.00;2.40;;;18.40;99.90;;;;;;5120375;27;20992;-64
2022/05/08 12:27:14;;;;;;;8.60;2.73;;;18.40;99.90;;;;;;5122422;27;20328;-64
2022/05/08 12:29:45;;;;;;;11.90;2.53;;;18.40;99.90;;;;;;5122076;27;20703;-64
2022/05/08 12:32:14;;;;;;;10.03;3.60;;;18.30;99.90;;;;;;5124134;27;20247;-64
2022/05/08 12:34:44;;;;;;;7.47;2.73;;;18.20;99.90;;;;;;5125980;27;20731;-64
2022/05/08 12:37:14;;;;;;;8.43;2.60;;;18.50;99.90;;;;;;5125859;27;20271;-64
2022/05/08 12:39:44;;;;;;;11.20;2.73;;;18.80;99.90;;;;;;5125589;27;20236;-64
2022/05/08 12:42:12;;;;;;;4.87;2.03;;;18.60;99.90;;;;;;5125258;27;20288;-64
2022/05/08 12:44:40;;;;;;;7.70;2.20;;;18.30;99.90;;;;;;5125410;27;20247;-64
2022/05/08 12:47:11;;;;;;;9.00;2.50;;;18.20;99.90;;;;;;5126252;27;20711;-64
2022/05/08 12:49:41;;;;;;;8.33;2.40;;;18.10;99.90;;;;;;5125528;27;20711;-64
2022/05/08 12:52:11;;;;;;;7.03;2.20;;;17.80;99.90;;;;;;5125211;27;20554;-64
2022/05/08 12:54:40;;;;;;;8.53;2.17;;;17.50;99.90;;;;;;5125404;27;20976;-64
2022/05/08 12:57:11;;;;;;;8.27;2.30;;;17.60;99.90;;;;;;5125318;27;20238;-64
2022/05/08 12:59:46;;;;;;;10.30;2.33;;;17.50;99.90;;;;;;5124982;27;20726;-64
2022/05/08 13:02:16;;;;;;;12.00;2.80;;;17.60;99.90;;;;;;5124554;27;20273;-64
2022/05/08 13:04:46;;;;;;;10.30;2.60;;;17.90;99.90;;;;;;5124412;27;20236;-64
2022/05/08 13:07:16;;;;;;;9.57;2.33;;;17.80;99.90;;;;;;5124442;27;20252;-64
2022/05/08 13:09:44;;;;;;;7.93;2.30;;;17.70;99.90;;;;;;5123928;27;20295;-65
2022/05/08 13:12:12;;;;;;;9.37;2.30;;;17.70;99.90;;;;;;5123505;27;20234;-64
2022/05/08 13:14:41;;;;;;;14.23;2.70;;;17.20;99.90;;;;;;5123404;27;20249;-64
2022/05/08 13:17:09;;;;;;;8.57;2.20;;;17.20;99.90;;;;;;5123588;27;20242;-64
2022/05/08 13:19:38;;;;;;;9.30;2.83;;;17.20;99.90;;;;;;5123755;27;20251;-64
2022/05/08 13:22:07;;;;;;;8.60;2.40;;;17.00;99.90;;;;;;5123786;27;20309;-64
2022/05/08 13:24:38;;;;;;;7.83;2.30;;;17.00;99.90;;;;;;5123060;27;20236;-64
2022/05/08 13:27:06;;;;;;;9.10;2.50;;;17.30;99.90;;;;;;5124036;27;20582;-64
2022/05/08 13:29:34;;;;;;;10.90;2.60;;;17.10;99.90;;;;;;5124150;27;20234;-64
2022/05/08 13:32:03;;;;;;;9.60;2.60;;;17.00;99.90;;;;;;5123757;27;20238;-64
2022/05/08 13:34:31;;;;;;;12.03;2.63;;;16.90;99.90;;;;;;5122676;27;20274;-63
2022/05/08 13:37:00;;;;;;;7.20;2.17;;;17.00;99.90;;;;;;5122863;27;20248;-64
2022/05/08 13:39:28;;;;;;;5.67;2.00;;;16.80;99.90;;;;;;5123829;27;20247;-64